Farragut, Pennsylvania
Current Conditions -  °F | °C
As of 4:13 AM on Monday 22 Dec 2014 (Local Time) from KIPT Reporting Station
Scattered Clouds Scattered Clouds  
Wind Chill: 21°   Ceiling: Unl
Heat Index: 21°   Visibility: 10mi
Dew Point: 15°   Wind: 0mph
Humidity: 78%   Direction: NA
Pressure: 30.29"   Gusts: NA
Location:  41.2816°N, 76.8857°W
Report Text: KIPT 220913Z AUTO 00000KT 10SM SCT005 M06/M09 A3029 RMK AO2 T10611094
Loading
Personal Weather Stations






























Interactive Weather Map New forecast layout! Learn more

10-Day Weather Forecast

Advertisements
Track Severe Weather on mobile